Idyllwild, California
Current Conditions -  °F | °C
As of 6:53 PM on Tuesday 21 Oct 2014 (Local Time) from KPSP Reporting Station
Clear Clear  
Wind Chill: 88°   Ceiling: Unl
Heat Index: 88°   Visibility: 10mi
Dew Point: 39°   Wind: 14mph
Humidity: 18%   Direction: 320°NW
Pressure: 29.77"   Gusts: NA
Location:  33.74°N, 116.72°W
Report Text: KPSP 220153Z 32012KT 10SM CLR 31/04 A2977 RMK AO2 SLP076 T03110039 $
Loading
Personal Weather Stations






























Interactive Weather Map
Tropical Storm Tracking
New forecast layout! Learn more

10-Day Weather Forecast

Advertisements
Track Severe Weather on mobile